Map

Track Data

SID SEASON NUMBER BASIN SUBBASIN NAME ISO_TIME NATURE LAT LON WMO_WIND WMO_PRES WMO_AGENCY TRACK_TYPE DIST2LAND LANDFALL IFLAG USA_AGENCY USA_ATCF_ID USA_LAT USA_LON USA_RECORD USA_STATUS USA_WIND USA_PRES USA_SSHS USA_R34_NE USA_R34_SE USA_R34_SW USA_R34_NW USA_R50_NE USA_R50_SE USA_R50_SW USA_R50_NW USA_R64_NE USA_R64_SE USA_R64_SW USA_R64_NW USA_POCI USA_ROCI USA_RMW USA_EYE TOKYO_LAT TOKYO_LON TOKYO_GRADE TOKYO_WIND TOKYO_PRES TOKYO_R50_DIR TOKYO_R50_LONG TOKYO_R50_SHORT TOKYO_R30_DIR TOKYO_R30_LONG TOKYO_R30_SHORT TOKYO_LAND CMA_LAT CMA_LON CMA_CAT CMA_WIND CMA_PRES HKO_LAT HKO_LON HKO_CAT HKO_WIND HKO_PRES NEWDELHI_LAT NEWDELHI_LON NEWDELHI_GRADE NEWDELHI_WIND NEWDELHI_PRES NEWDELHI_CI NEWDELHI_DP NEWDELHI_POCI REUNION_LAT REUNION_LON REUNION_TYPE REUNION_WIND REUNION_PRES REUNION_TNUM REUNION_CI REUNION_RMW REUNION_R34_NE REUNION_R34_SE REUNION_R34_SW REUNION_R34_NW REUNION_R50_NE REUNION_R50_SE REUNION_R50_SW REUNION_R50_NW REUNION_R64_NE REUNION_R64_SE REUNION_R64_SW REUNION_R64_NW BOM_LAT BOM_LON BOM_TYPE BOM_WIND BOM_PRES BOM_TNUM BOM_CI BOM_RMW BOM_R34_NE BOM_R34_SE BOM_R34_SW BOM_R34_NW BOM_R50_NE BOM_R50_SE BOM_R50_SW BOM_R50_NW BOM_R64_NE BOM_R64_SE BOM_R64_SW BOM_R64_NW BOM_ROCI BOM_POCI BOM_EYE BOM_POS_METHOD BOM_PRES_METHOD NADI_LAT NADI_LON NADI_CAT NADI_WIND NADI_PRES WELLINGTON_LAT WELLINGTON_LON WELLINGTON_WIND WELLINGTON_PRES DS824_LAT DS824_LON DS824_STAGE DS824_WIND DS824_PRES TD9636_LAT TD9636_LON TD9636_STAGE TD9636_WIND TD9636_PRES TD9635_LAT TD9635_LON TD9635_WIND TD9635_PRES TD9635_ROCI NEUMANN_LAT NEUMANN_LON NEUMANN_CLASS NEUMANN_WIND NEUMANN_PRES MLC_LAT MLC_LON MLC_CLASS MLC_WIND MLC_PRES USA_GUST BOM_GUST BOM_GUST_PER REUNION_GUST REUNION_GUST_PER USA_SEAHGT USA_SEARAD_NE USA_SEARAD_SE USA_SEARAD_SW USA_SEARAD_NW STORM_SPEED STORM_DIR
1966055S11099 1966 14 SI WA JUDITH:MARTHA 1966-02-23 16:00:00 NR -11.0000 99.0000 main 828 828 __________O___ -1 -11.0000 99.0000 1 20 1 0
1966055S11099 1966 14 SI WA JUDITH:MARTHA 1966-02-23 18:00:00 TS -11.0093 98.9845 main 828 828 O________OP_O_ jtwc_sh SH261966 -11.0000 99.0000 20 -1 -11.0000 99.0000 TC 20 -11.0232 98.9612 1 19 -11.0000 99.0000 TC 20 2 255
1966055S11099 1966 14 SI WA JUDITH:MARTHA 1966-02-23 21:00:00 TS -11.0348 98.8650 main 837 837 P________PP_P_ SH261966 -11.0150 98.8575 17 -1 -11.0150 98.8575 TC 17 -11.0743 98.8800 1 17 -11.0150 98.8575 TC 17 3 247
1966055S11099 1966 14 SI WA JUDITH:MARTHA 1966-02-24 00:00:00 TS -11.1207 98.7123 main 861 861 O________OP_O_ jtwc_sh SH261966 -11.1000 98.7000 15 -1 -11.1000 98.7000 TC 15 -11.1673 98.7399 1 16 -11.1000 98.7000 TC 15 3 237
1966055S11099 1966 14 SI WA JUDITH:MARTHA 1966-02-24 01:00:00 TS -11.1594 98.6700 1003 bom main 867 867 P_____O__PP_P_ SH261966 -11.1552 98.6412 15 -1 -11.0000 99.0000 1003 -11.1552 98.6412 TC 15 -11.2120 98.6740 1 16 -11.1552 98.6412 TC 15 5 227
1966055S11099 1966 14 SI WA JUDITH:MARTHA 1966-02-24 03:00:00 TS -11.3043 98.5139 main 892 892 P_____P__PP_P_ SH261966 -11.3049 98.5024 15 -1 -11.2544 98.6000 1003 -11.3049 98.5024 TC 15 -11.3274 98.5053 1 15 -11.3049 98.5024 TC 15 7 227
1966055S11099 1966 14 SI WA JUDITH:MARTHA 1966-02-24 04:00:00 TS -11.3973 98.4107 1003 bom main 907 907 P_____O__PO_P_ SH261966 -11.3957 98.4169 15 -1 -11.4000 98.4000 1003 -11.3957 98.4169 TC 15 -11.4000 98.4000 1 15 -11.3957 98.4169 TC 15 10 229
1966055S11099 1966 14 SI WA JUDITH:MARTHA 1966-02-24 06:00:00 TS -11.6262 98.1421 main 947 947 O_____P__OP_O_ jtwc_sh SH261966 -11.6000 98.2000 15 -1 -11.7358 98.0000 1003 -11.6000 98.2000 TC 15 -11.5767 98.1460 1 15 -11.6000 98.2000 TC 15 11 230
1966055S11099 1966 14 SI WA JUDITH:MARTHA 1966-02-24 07:00:00 TS -11.7466 97.9789 1003 bom main 962 962 P_____O__PP_P_ SH261966 -11.7053 98.0515 15 -1 -11.9000 97.8000 1003 -11.7053 98.0515 TC 15 -11.6788 98.0022 1 16 -11.7053 98.0515 TC 15 12 234
1966055S11099 1966 14 SI WA JUDITH:MARTHA 1966-02-24 09:00:00 TS -11.9898 97.6304 main 1017 1017 P_____P__PP_P_ SH261966 -11.9352 97.7077 17 -1 -12.1805 97.3820 1003 -11.9352 97.7077 TC 17 -11.9046 97.6946 1 17 -11.9352 97.7077 TC 17 13 234
1966055S11099 1966 14 SI WA JUDITH:MARTHA 1966-02-24 10:00:00 TS -12.1137 97.4585 1003 bom main 1032 1032 P_____O__PP_P_ SH261966 -12.0560 97.5290 18 -1 -12.3000 97.2000 1003 -12.0560 97.5290 TC 18 -12.0260 97.5363 1 17 -12.0560 97.5290 TC 18 12 232
1966055S11099 1966 14 SI WA JUDITH:MARTHA 1966-02-24 12:00:00 TS -12.3474 97.1555 main 1072 1087 O_____P__OP_O_ jtwc_sh SH261966 -12.3000 97.2000 20 -1 -12.4776 96.9424 1003 -12.3000 97.2000 TC 20 -12.2799 97.2249 1 18 -12.3000 97.2000 TC 20 10 228
1966055S11099 1966 14 SI WA JUDITH:MARTHA 1966-02-24 15:00:00 TS -12.6828 96.8174 main 1133 1133 P_____P__PP_P_ SH261966 -12.6499 96.8399 20 -1 -12.7027 96.7404 1003 -12.6499 96.8399 TC 20 -12.6713 96.8120 1 19 -12.6499 96.8399 TC 20 9 223
1966055S11099 1966 14 SI WA JUDITH:MARTHA 1966-02-24 16:00:00 TS -12.7974 96.7303 1003 bom main 1148 1148 P_____O__PO_P_ SH261966 -12.7666 96.7466 20 -1 -12.8000 96.7000 1003 -12.7666 96.7466 TC 20 -12.8000 96.7000 1 20 -12.7666 96.7466 TC 20 8 191
1966055S11099 1966 14 SI WA JUDITH:MARTHA 1966-02-24 18:00:00 TS -13.0653 96.7325 main 1168 1159 O_____P__OP_O_ jtwc_sh SH261966 -13.0000 96.6000 20 -1 -13.0697 96.6280 1002 -13.0000 96.6000 TC 20 -13.0461 96.5665 1 21 -13.0000 96.6000 TC 20 8 174
1966055S11099 1966 14 SI WA JUDITH:MARTHA 1966-02-24 19:00:00 TS -13.2004 96.7693 1002 bom main 1166 1166 P_____O__PP_P_ SH261966 -13.1166 96.5437 20 -1 -13.2000 96.6000 1002 -13.1166 96.5437 TC 20 -13.1698 96.5180 1 22 -13.1166 96.5437 TC 20 7 184
1966055S11099 1966 14 SI WA JUDITH:MARTHA 1966-02-24 21:00:00 TS -13.4272 96.7142 main 1188 1188 P_____P__PP_P_ SH261966 -13.3499 96.4699 22 -1 -13.4054 96.5333 1001 -13.3499 96.4699 TC 22 -13.4158 96.4487 1 24 -13.3499 96.4699 TC 22 7 192
1966055S11099 1966 14 SI WA JUDITH:MARTHA 1966-02-24 22:00:00 TS -13.5383 96.6986 1001 bom main 1195 1195 P_____O__PP_P_ SH261966 -13.4666 96.4448 23 -1 -13.5000 96.5000 1001 -13.4666 96.4448 TC 23 -13.5369 96.4241 1 25 -13.4666 96.4448 TC 23 7 205
1966055S11099 1966 14 SI WA JUDITH:MARTHA 1966-02-25 00:00:00 TS -13.7345 96.5672 main 1217 1224 O_____P__OP_O_ jtwc_sh SH261966 -13.7000 96.4000 25 -1 -13.6921 96.4333 1000 -13.7000 96.4000 TC 25 -13.7724 96.3856 1 26 -13.7000 96.4000 TC 25 7 213
1966055S11099 1966 14 SI WA JUDITH:MARTHA 1966-02-25 01:00:00 TS -13.8349 96.4980 1000 bom main 1233 1233 P_____O__PP_P_ SH261966 -13.8245 96.3693 25 -1 -13.8000 96.4000 1000 -13.8245 96.3693 TC 25 -13.8856 96.3681 1 27 -13.8245 96.3693 TC 25 7 214
1966055S11099 1966 14 SI WA JUDITH:MARTHA 1966-02-25 03:00:00 TS -14.0358 96.3608 main 1255 1271 P_____P__PP_P_ SH261966 -14.0725 96.3075 27 -1 -14.0657 96.3333 999 -14.0725 96.3075 TC 27 -14.1000 96.3272 1 29 -14.0725 96.3075 TC 27 7 214
1966055S11099 1966 14 SI WA JUDITH:MARTHA 1966-02-25 04:00:00 TS -14.1317 96.2924 999 bom main 1271 1271 P_____O__PO_P_ SH261966 -14.1904 96.2746 28 -1 -14.2000 96.3000 999 -14.1904 96.2746 TC 28 -14.2000 96.3000 1 30 -14.1904 96.2746 TC 28 7 216
1966055S11099 1966 14 SI WA JUDITH:MARTHA 1966-02-25 06:00:00 TS -14.3051 96.1567 main 1293 1301 O_____P__OP_O_ jtwc_sh SH261966 -14.4000 96.2000 30 -1 -14.4357 96.2474 998 -14.4000 96.2000 TC 30 -14.3731 96.2264 1 30 -14.4000 96.2000 TC 30 6 220
1966055S11099 1966 14 SI WA JUDITH:MARTHA 1966-02-25 09:00:00 TS -14.5147 95.9560 main 1324 1332 P_____P__PP_P_ SH261966 -14.6150 96.0724 32 -1 -14.7235 96.1497 997 -14.6150 96.0724 TC 32 -14.6012 96.0977 1 32 -14.6150 96.0724 TC 32 6 224
1966055S11099 1966 14 SI WA JUDITH:MARTHA 1966-02-25 10:00:00 TS -14.5761 95.8863 997 bom main 1339 1339 P_____O__PP_P_ SH261966 -14.6750 96.0211 33 -1 -14.8000 96.1000 997 -14.6750 96.0211 TC 33 -14.6720 96.0467 1 32 -14.6750 96.0211 TC 33 6 230
1966055S11099 1966 14 SI WA JUDITH:MARTHA 1966-02-25 12:00:00 TS -14.6921 95.7395 main 1363 1363 O_____P__OP_O_ jtwc_sh SH261966 -14.8000 95.9000 35 0 -14.8964 95.9839 997 -14.8000 95.9000 TC 35 -14.8109 95.9279 1 33 -14.8000 95.9000 TC 35 6 231
1966055S11099 1966 14 SI WA JUDITH:MARTHA 1966-02-25 15:00:00 TS -14.8777 95.5036 main 1394 1394 P_____P__PP_P_ SH261966 -15.0348 95.7023 35 0 -15.0292 95.7195 997 -15.0348 95.7023 TC 35 -15.0243 95.6953 1 34 -15.0348 95.7023 TC 35 6 231
1966055S11099 1966 14 SI WA JUDITH:MARTHA 1966-02-25 16:00:00 TS -14.9447 95.4126 997 bom main 1402 1402 P_____O__PO_P_ SH261966 -15.1198 95.6169 35 0 -15.1000 95.6000 997 -15.1198 95.6169 TC 35 -15.1000 95.6000 2 35 -15.1198 95.6169 TC 35 7 233
1966055S11099 1966 14 SI WA JUDITH:MARTHA 1966-02-25 18:00:00 TS -15.0981 95.1963 main 1433 1433 O_____P__OP_O_ jtwc_sh SH261966 -15.3000 95.4000 35 0 -15.3298 95.2891 997 -15.3000 95.4000 TC 35 -15.3038 95.3535 2 32 -15.3000 95.4000 TC 35 9 236
1966055S11099 1966 14 SI WA JUDITH:MARTHA 1966-02-25 21:00:00 TS -15.3583 94.7812 main 1488 1488 P_____P__PP_P_ SH261966 -15.6152 94.9153 30 -1 -15.7562 94.7617 997 -15.6152 94.9153 TC 30 -15.6227 94.9199 2 28 -15.6152 94.9153 TC 30 10 237
1966055S11099 1966 14 SI WA JUDITH:MARTHA 1966-02-25 22:00:00 TS -15.4435 94.6359 998 bom main 1504 1504 P_____O__PP_P_ SH261966 -15.7185 94.7370 28 -1 -15.9000 94.6000 998 -15.7185 94.7370 TC 28 -15.7260 94.7665 2 27 -15.7185 94.7370 TC 28 10 239
1966055S11099 1966 14 SI WA JUDITH:MARTHA 1966-02-26 00:00:00 TS -15.6030 94.3581 main 1535 1543 O_____P__OP_O_ jtwc_sh SH261966 -15.9000 94.4000 25 -1 -16.2085 94.3215 998 -15.9000 94.4000 TC 25 -15.9181 94.4591 2 24 -15.9000 94.4000 TC 25 9 240
1966055S11099 1966 14 SI WA JUDITH:MARTHA 1966-02-26 01:00:00 TS -15.6670 94.2331 999 bom main 1559 1559 P_____O__PP_P_ SH261966 -15.9749 94.2583 24 -1 -16.3000 94.2000 999 -15.9749 94.2583 TC 24 -16.0038 94.3092 2 23 -15.9749 94.2583 TC 24 8 246
1966055S11099 1966 14 SI WA JUDITH:MARTHA 1966-02-26 03:00:00 TS -15.7534 94.0016 main 1582 1582 P_____P__PP_P_ SH261966 -16.0949 94.0049 22 -1 -16.2526 93.9945 999 -16.0949 94.0049 TC 22 -16.1463 94.0275 2 21 -16.0949 94.0049 TC 22 7 250
1966055S11099 1966 14 SI WA JUDITH:MARTHA 1966-02-26 04:00:00 TS -15.7847 93.8949 999 bom main 1591 1591 P_____O__PO_P_ SH261966 -16.1399 93.8933 21 -1 -16.2000 93.9000 999 -16.1399 93.8933 TC 21 -16.2000 93.9000 1 20 -16.1399 93.8933 TC 21 6 253
1966055S11099 1966 14 SI WA JUDITH:MARTHA 1966-02-26 06:00:00 TS -15.8396 93.7013 main 1608 1608 O_____P__OP_O_ jtwc_sh SH261966 -16.2000 93.7000 20 -1 -16.2025 93.7000 999 -16.2000 93.7000 TC 20 -16.2540 93.7116 1 21 -16.2000 93.7000 TC 20 6 255
1966055S11099 1966 14 SI WA JUDITH:MARTHA 1966-02-26 07:00:00 TS -15.8593 93.6135 999 bom main 1623 1623 P_____O__PP_P_ SH261966 -16.2197 93.6188 21 -1 -16.2000 93.6000 999 -16.2197 93.6188 TC 21 -16.2647 93.6290 1 22 -16.2197 93.6188 TC 21 5 261
1966055S11099 1966 14 SI WA JUDITH:MARTHA 1966-02-26 09:00:00 TS -15.8757 93.4525 main 1632 1640 P_____P__PP_P_ SH261966 -16.2299 93.4849 25 -1 -16.1343 93.3923 999 -16.2299 93.4849 TC 25 -16.2598 93.4803 1 24 -16.2299 93.4849 TC 25 5 265
1966055S11099 1966 14 SI WA JUDITH:MARTHA 1966-02-26 10:00:00 TS -15.8777 93.3778 999 bom main 1640 1640 P_____O__PP_P_ SH261966 -16.2241 93.4249 26 -1 -16.1000 93.3000 999 -16.2241 93.4249 TC 26 -16.2467 93.4117 1 25 -16.2241 93.4249 TC 26 4 268
1966055S11099 1966 14 SI WA JUDITH:MARTHA 1966-02-26 12:00:00 TS -15.8813 93.2382 main 1657 1657 O_____P__OP_O_ jtwc_sh SH261966 -16.2000 93.3000 30 -1 -16.0925 93.2019 999 -16.2000 93.3000 TC 30 -16.2058 93.2797 1 26 -16.2000 93.3000 TC 30 4 269
1966055S11099 1966 14 SI WA JUDITH:MARTHA 1966-02-26 15:00:00 TS -15.8861 93.0130 main 1673 1673 P_____P__PP_P_ SH261966 -16.1575 93.0650 30 -1 -16.1092 93.0790 999 -16.1575 93.0650 TC 30 -16.1263 93.0751 1 29 -16.1575 93.0650 TC 30 4 269
1966055S11099 1966 14 SI WA JUDITH:MARTHA 1966-02-26 16:00:00 TS -15.8845 92.9312 999 bom main 1680 1680 P_____O__PO_P_ SH261966 -16.1387 92.9800 30 -1 -16.1000 93.0000 999 -16.1387 92.9800 TC 30 -16.1000 93.0000 1 30 -16.1387 92.9800 TC 30 5 272
1966055S11099 1966 14 SI WA JUDITH:MARTHA 1966-02-26 18:00:00 TS -15.8770 92.7489 main 1695 1695 O_____P__OP_O_ jtwc_sh SH261966 -16.1000 92.8000 30 -1 -16.0285 92.7338 999 -16.1000 92.8000 TC 30 -16.0646 92.8065 1 27 -16.1000 92.8000 TC 30 5 272
1966055S11099 1966 14 SI WA JUDITH:MARTHA 1966-02-26 19:00:00 TS -15.8750 92.6559 999 bom main 1695 1695 P_____O__PP_P_ SH261966 -16.0833 92.7031 28 -1 -16.0000 92.6000 999 -16.0833 92.7031 TC 28 -16.0452 92.7052 1 26 -16.0833 92.7031 TC 28 5 270
1966055S11099 1966 14 SI WA JUDITH:MARTHA 1966-02-26 21:00:00 TS -15.8774 92.4753 main 1709 1709 P_____P__PP_P_ SH261966 -16.0500 92.5000 25 -1 -16.0024 92.3946 999 -16.0500 92.5000 TC 25 -16.0050 92.4972 1 23 -16.0500 92.5000 TC 25 5 269
1966055S11099 1966 14 SI WA JUDITH:MARTHA 1966-02-26 22:00:00 TS -15.8784 92.3863 999 bom main 1716 1716 P_____O__PP_P_ SH261966 -16.0333 92.3975 23 -1 -16.0000 92.3000 999 -16.0333 92.3975 TC 23 -15.9852 92.3923 1 22 -16.0333 92.3975 TC 23 5 271
1966055S11099 1966 14 SI WA JUDITH:MARTHA 1966-02-27 00:00:00 TS -15.8746 92.2101 main 1731 1731 O_____P__OP_O_ jtwc_sh SH261966 -16.0000 92.2000 20 -1 -15.9309 92.0921 999 -16.0000 92.2000 TC 20 -15.9486 92.1845 1 19 -16.0000 92.2000 TC 20 5 271
1966055S11099 1966 14 SI WA JUDITH:MARTHA 1966-02-27 01:00:00 TS -15.8732 92.1276 999 bom main 1738 1738 P_____O__PP_P_ SH261966 -15.9807 92.1083 19 -1 -15.9000 92.0000 999 -15.9807 92.1083 TC 19 -15.9327 92.0833 1 18 -15.9807 92.1083 TC 19 5 269
1966055S11099 1966 14 SI WA JUDITH:MARTHA 1966-02-27 03:00:00 TS -15.8785 91.9731 main 1745 1745 P_____P__PP_P_ SH261966 -15.9425 91.9350 17 -1 -15.8913 91.8657 999 -15.9425 91.9350 TC 17 -15.9079 91.8902 1 16 -15.9425 91.9350 TC 17 4 267
1966055S11099 1966 14 SI WA JUDITH:MARTHA 1966-02-27 04:00:00 TS -15.8845 91.8977 999 bom main 1752 1752 P_____O__PO_P_ SH261966 -15.9254 91.8533 16 -1 -15.9000 91.8000 999 -15.9254 91.8533 TC 16 -15.9000 91.8000 1 15 -15.9254 91.8533 TC 16 4 264
1966055S11099 1966 14 SI WA JUDITH:MARTHA 1966-02-27 06:00:00 TS -15.9015 91.7409 main 1766 1766 O_____P__OP_O_ jtwc_sh SH261966 -15.9000 91.7000 15 -1 -15.9274 91.6028 999 -15.9000 91.7000 TC 15 -15.8837 91.6412 1 15 -15.9000 91.7000 TC 15 5 262
1966055S11099 1966 14 SI WA JUDITH:MARTHA 1966-02-27 09:00:00 TS -15.9369 91.4961 main 1781 1781 P_____P__PP_P_ SH261966 -15.8775 91.4925 15 -1 -15.9853 91.2853 999 -15.8775 91.4925 TC 15 -15.8778 91.4281 1 15 -15.8775 91.4925 TC 15 5 261
1966055S11099 1966 14 SI WA JUDITH:MARTHA 1966-02-27 10:00:00 TS -15.9529 91.4164 999 bom main 1796 1796 P_____O__PP_P_ SH261966 -15.8787 91.4279 15 -1 -16.0000 91.2000 999 -15.8787 91.4279 TC 15 -15.8823 91.3624 1 15 -15.8787 91.4279 TC 15 5 256
1966055S11099 1966 14 SI WA JUDITH:MARTHA 1966-02-27 12:00:00 TS -15.9909 91.2683 main 1803 1803 O_____P__OP_O_ jtwc_sh SH261966 -15.9000 91.3000 15 -1 -15.9925 91.1333 999 -15.9000 91.3000 TC 15 -15.9028 91.2369 1 15 -15.9000 91.3000 TC 15 4 251
1966055S11099 1966 14 SI WA JUDITH:MARTHA 1966-02-27 15:00:00 TS -16.0771 91.0492 main 1830 1830 P_____P__PP_P_ SH261966 -15.9775 91.1000 15 -1 -15.9865 91.0560 999 -15.9775 91.1000 TC 15 -15.9678 91.0583 1 15 -15.9775 91.1000 TC 15 5 247
1966055S11099 1966 14 SI WA JUDITH:MARTHA 1966-02-27 16:00:00 TS -16.1133 90.9726 999 bom main 1830 1830 P_____O__PO_P_ SH261966 -16.0146 91.0333 15 -1 -16.0000 91.0000 999 -16.0146 91.0333 TC 15 -16.0000 91.0000 1 15 -16.0146 91.0333 TC 15 5 244
1966055S11099 1966 14 SI WA JUDITH:MARTHA 1966-02-27 18:00:00 TS -16.1931 90.8059 main 1850 1850 O_____P__OP_O_ jtwc_sh SH261966 -16.1000 90.9000 15 -1 -16.0715 90.7987 999 -16.1000 90.9000 TC 15 -16.0667 90.8542 1 18 -16.1000 90.9000 TC 15 5 246
1966055S11099 1966 14 SI WA JUDITH:MARTHA 1966-02-27 19:00:00 TS -16.2245 90.7161 999 bom main 1856 1856 P_____O__PP_P_ SH261966 -16.1390 90.8281 17 -1 -16.1000 90.7000 999 -16.1390 90.8281 TC 17 -16.1076 90.7815 1 20 -16.1390 90.8281 TC 17 5 250
1966055S11099 1966 14 SI WA JUDITH:MARTHA 1966-02-27 21:00:00 TS -16.2850 90.5450 main 1876 1876 P_____P__PP_P_ SH261966 -16.2275 90.6850 22 -1 -16.0975 90.5691 999 -16.2275 90.6850 TC 22 -16.2043 90.6413 1 23 -16.2275 90.6850 TC 22 5 248
1966055S11099 1966 14 SI WA JUDITH:MARTHA 1966-02-27 22:00:00 TS -16.3213 90.4628 999 bom main 1876 1876 P_____O__PP_P_ SH261966 -16.2788 90.6175 24 -1 -16.1000 90.5000 999 -16.2788 90.6175 TC 24 -16.2601 90.5755 1 25 -16.2788 90.6175 TC 24 5 240
1966055S11099 1966 14 SI WA JUDITH:MARTHA 1966-02-28 00:00:00 TS -16.4157 90.3044 main 1897 1897 O_____P__OP_O_ jtwc_sh SH261966 -16.4000 90.5000 30 -1 -16.1297 90.2739 999 -16.4000 90.5000 TC 30 -16.3867 90.4572 1 28 -16.4000 90.5000 TC 30 5 234
1966055S11099 1966 14 SI WA JUDITH:MARTHA 1966-02-28 01:00:00 TS -16.4798 90.2351 999 bom main 1912 1912 P_____O__PP_P_ SH261966 -16.4667 90.4474 30 -1 -16.2000 90.2000 999 -16.4667 90.4474 TC 30 -16.4576 90.4066 1 30 -16.4667 90.4474 TC 30 6 214
1966055S11099 1966 14 SI WA JUDITH:MARTHA 1966-02-28 03:00:00 TS -16.6500 90.1396 main 1936 1936 P_____P__PP_P_ SH261966 -16.6200 90.3626 32 -1 -16.5195 90.2528 998 -16.6200 90.3626 TC 32 -16.6142 90.3271 1 33 -16.6200 90.3626 TC 32 6 205
1966055S11099 1966 14 SI WA JUDITH:MARTHA 1966-02-28 04:00:00 TS -16.7476 90.1072 998 bom main 1936 1936 P_____O__PO_P_ SH261966 -16.7067 90.3322 33 -1 -16.7000 90.3000 998 -16.7067 90.3322 TC 33 -16.7000 90.3000 2 35 -16.7067 90.3322 TC 33 6 193
1966055S11099 1966 14 SI WA JUDITH:MARTHA 1966-02-28 06:00:00 TS -16.9508 90.0635 main 1965 1965 O_____P__OP_O_ jtwc_sh SH261966 -16.9000 90.3000 35 0 -16.9721 90.2976 997 -16.9000 90.3000 TC 35 -16.8850 90.2739 2 34 -16.9000 90.3000 TC 35 6 189
1966055S11099 1966 14 SI WA JUDITH:MARTHA 1966-02-28 07:00:00 TS -17.0575 90.0555 997 bom main 1975 1975 P_____O__PP_P_ SH261966 -17.0052 90.2969 35 0 -17.1000 90.3000 997 -17.0052 90.2969 TC 35 -16.9858 90.2729 2 33 -17.0052 90.2969 TC 35 7 0
1966055S11099 1966 14 SI WA JUDITH:MARTHA 1966-02-28 09:00:00 TS -17.2894 90.0776 main 1994 1994 P_____P__PP_P_ SH261966 -17.2350 90.3200 35 0 -17.3744 90.3631 996 -17.2350 90.3200 TC 35 -17.2004 90.2916 2 32 -17.2350 90.3200 TC 35 7 174
1966055S11099 1966 14 SI WA JUDITH:MARTHA 1966-02-28 10:00:00 TS -17.4097 90.1031 996 bom main 2004 2004 P_____O__PP_P_ SH261966 -17.3558 90.3424 35 0 -17.5000 90.4000 996 -17.3558 90.3424 TC 35 -17.3124 90.3098 2 32 -17.3558 90.3424 TC 35 7 166
1966055S11099 1966 14 SI WA JUDITH:MARTHA 1966-02-28 12:00:00 TS -17.6471 90.1724 main 2014 2023 O_____P__OP_O_ jtwc_sh SH261966 -17.6000 90.4000 35 0 -17.6778 90.4371 995 -17.6000 90.4000 TC 35 -17.5419 90.3606 2 31 -17.6000 90.4000 TC 35 7 161
1966055S11099 1966 14 SI WA JUDITH:MARTHA 1966-02-28 15:00:00 TS -17.9932 90.3090 main 2041 2041 P_____P__PP_P_ SH261966 -17.9425 90.4925 32 -1 -17.9028 90.4788 995 -17.9425 90.4925 TC 32 -17.8876 90.4622 2 30 -17.9425 90.4925 TC 32 8 158
1966055S11099 1966 14 SI WA JUDITH:MARTHA 1966-02-28 16:00:00 TS -18.1112 90.3662 995 bom main 2041 2041 P_____O__PO_P_ SH261966 -18.0588 90.5279 31 -1 -18.0000 90.5000 995 -18.0588 90.5279 TC 31 -18.0000 90.5000 1 30 -18.0588 90.5279 TC 31 8 155
1966055S11099 1966 14 SI WA JUDITH:MARTHA 1966-02-28 18:00:00 TS -18.3567 90.4908 main 2055 2055 O_____P__OP_O_ jtwc_sh SH261966 -18.3000 90.6000 30 -1 -18.2579 90.5674 994 -18.3000 90.6000 TC 30 -18.2528 90.5502 1 27 -18.3000 90.6000 TC 30 8 154
1966055S11099 1966 14 SI WA JUDITH:MARTHA 1966-02-28 19:00:00 TS -18.4881 90.5582 994 bom main 2053 2053 P_____O__PP_P_ SH261966 -18.4486 90.6281 28 -1 -18.4000 90.6000 994 -18.4486 90.6281 TC 28 -18.3802 90.5787 1 26 -18.4486 90.6281 TC 28 9 154
1966055S11099 1966 14 SI WA JUDITH:MARTHA 1966-02-28 21:00:00 TS -18.7573 90.6989 main 2066 2063 P_____P__PP_P_ SH261966 -18.7525 90.6850 25 -1 -18.7611 90.6112 993 -18.7525 90.6850 TC 25 -18.6268 90.6441 1 23 -18.7525 90.6850 TC 25 9 151
1966055S11099 1966 14 SI WA JUDITH:MARTHA 1966-03-01 00:00:00 TS -19.1039 90.9229 main 2071 2063 O_____P__OP_O_ jtwc_sh SH261966 -19.1000 90.8000 20 -1 -19.2298 90.6486 992 -19.1000 90.8000 TC 20 -18.9474 90.7689 1 19 -19.1000 90.8000 TC 20 8 146
1966055S11099 1966 14 SI WA JUDITH:MARTHA 1966-03-01 01:00:00 TS -19.1855 91.0044 992 bom main 2070 2061 P_____O__PP_P_ SH261966 -19.1535 90.8527 19 -1 -19.3000 90.7000 992 -19.1535 90.8527 TC 19 -19.0332 90.8191 1 18 -19.1535 90.8527 TC 19 6 129
1966055S11099 1966 14 SI WA JUDITH:MARTHA 1966-03-01 03:00:00 TS -19.2947 91.1702 main 2061 2061 P_____P__PP_P_ SH261966 -19.1825 90.9775 17 -1 -19.2612 90.8828 992 -19.1825 90.9775 TC 17 -19.1615 90.9343 1 16 -19.1825 90.9775 TC 17 5 122
1966055S11099 1966 14 SI WA JUDITH:MARTHA 1966-03-01 04:00:00 TS -19.3299 91.2481 993 bom main 2061 2053 P_____O__PO_P_ SH261966 -19.1671 91.0479 16 -1 -19.2000 91.0000 993 -19.1671 91.0479 TC 16 -19.2000 91.0000 1 15 -19.1671 91.0479 TC 16 4 112
1966055S11099 1966 14 SI WA JUDITH:MARTHA 1966-03-01 06:00:00 TS -19.3750 91.3804 main 2053 2053 O_____P__OP_O_ jtwc_sh SH261966 -19.1000 91.2000 15 -1 -19.0721 91.2692 993 -19.1000 91.2000 TC 15 -19.2029 91.1548 1 19 -19.1000 91.2000 TC 15 4 110
1966055S11099 1966 14 SI WA JUDITH:MARTHA 1966-03-01 07:00:00 TS -19.3931 91.4254 993 bom main 2053 2045 P_____O__PP_P_ SH261966 -19.0671 91.2750 18 -1 -19.0000 91.4000 993 -19.0671 91.2750 TC 18 -19.1796 91.2407 1 21 -19.0671 91.2750 TC 18 2 112
1966055S11099 1966 14 SI WA JUDITH:MARTHA 1966-03-01 09:00:00 TS -19.4115 91.4785 main 2045 2037 P_____P__PP_P_ SH261966 -18.9725 91.4350 25 -1 -18.8615 91.6113 993 -18.9725 91.4350 TC 25 -19.0937 91.4247 1 25 -18.9725 91.4350 TC 25 2 51
1966055S11099 1966 14 SI WA JUDITH:MARTHA 1966-03-01 10:00:00 TS -19.3271 91.5039 994 bom main 2037 2022 P_____O__PP_P_ SH261966 -18.9163 91.5200 28 -1 -18.8000 91.7000 994 -18.9163 91.5200 TC 28 -19.0353 91.5210 1 27 -18.9163 91.5200 TC 28 5 24
1966055S11099 1966 14 SI WA JUDITH:MARTHA 1966-03-01 12:00:00 TS -19.1793 91.5879 main 2022 1984 O_____P__OP_O_ jtwc_sh SH261966 -18.8000 91.7000 35 0 -18.7257 91.8146 994 -18.8000 91.7000 TC 35 -18.8980 91.7174 1 31 -18.8000 91.7000 TC 35 6 37
1966055S11099 1966 14 SI WA JUDITH:MARTHA 1966-03-01 15:00:00 TS -18.9149 91.8349 main 1984 1946 P_____P__PP_P_ SH261966 -18.6500 92.0075 37 0 -18.6425 91.9939 994 -18.6500 92.0075 TC 37 -18.6722 92.0079 1 37 -18.6500 92.0075 TC 37 11 41
1966055S11099 1966 14 SI WA JUDITH:MARTHA 1966-03-01 16:00:00 TS -18.6075 92.1168 994 bom main 1938 1915 P_____O__PO_P_ SH261966 -18.6000 92.1104 38 0 -18.6000 92.1000 994 -18.6000 92.1104 TC 38 -18.6000 92.1000 2 40 -18.6000 92.1104 TC 38 13 49
1966055S11099 1966 14 SI WA JUDITH:MARTHA 1966-03-01 18:00:00 TS -18.4929 92.3404 main 1915 1900 O_____P__OP_O_ jtwc_sh SH261966 -18.5000 92.3000 40 0 -18.4703 92.4311 994 -18.5000 92.3000 TC 40 -18.4869 92.3114 2 36 -18.5000 92.3000 TC 40 7 62
1966055S11099 1966 14 SI WA JUDITH:MARTHA 1966-03-01 19:00:00 TS -18.4351 92.4539 995 bom main 1892 1869 P_____O__PP_P_ SH261966 -18.4500 92.3807 37 0 -18.4000 92.6000 995 -18.4500 92.3807 TC 37 -18.4298 92.4168 2 35 -18.4500 92.3807 TC 37 7 60
1966055S11099 1966 14 SI WA JUDITH:MARTHA 1966-03-01 21:00:00 TS -18.3204 92.6597 main 1869 1869 P_____P__PP_P_ SH261966 -18.3499 92.5224 32 -1 -18.2666 92.8800 995 -18.3499 92.5224 TC 32 -18.3170 92.6170 2 31 -18.3499 92.5224 TC 32 7 59
1966055S11099 1966 14 SI WA JUDITH:MARTHA 1966-03-01 22:00:00 TS -18.2638 92.7496 995 bom main 1869 1845 P_____O__PP_P_ SH261966 -18.3000 92.5854 30 -1 -18.2000 93.0000 995 -18.3000 92.5854 TC 30 -18.2625 92.7078 2 30 -18.3000 92.5854 TC 30 6 54
1966055S11099 1966 14 SI WA JUDITH:MARTHA 1966-03-02 00:00:00 TS -18.1519 92.9024 main 1845 1838 O_____P__OP_O_ jtwc_sh SH261966 -18.2000 92.7000 25 -1 -18.0509 93.2529 995 -18.2000 92.7000 TC 25 -18.1604 92.8613 2 26 -18.2000 92.7000 TC 25 5 50
1966055S11099 1966 14 SI WA JUDITH:MARTHA 1966-03-02 01:00:00 TS -18.0988 92.9560 996 bom main 1830 1823 P_____O__PP_P_ SH261966 -18.1421 92.7741 24 -1 -18.0000 93.3000 996 -18.1421 92.7741 TC 24 -18.1140 92.9199 2 25 -18.1421 92.7741 TC 24 3 30
1966055S11099 1966 14 SI WA JUDITH:MARTHA 1966-03-02 03:00:00 TS -18.0148 92.9863 main 1823 1823 P_____P__PP_P_ SH261966 -18.0275 92.9100 22 -1 -17.9970 93.1405 996 -18.0275 92.9100 TC 22 -18.0332 92.9912 2 21 -18.0275 92.9100 TC 22 2 0
1966055S11099 1966 14 SI WA JUDITH:MARTHA 1966-03-02 04:00:00 TS -17.9793 92.9714 996 bom main 1823 1823 P_____O__PO_P_ SH261966 -17.9763 92.9608 21 -1 -18.0000 93.0000 996 -17.9763 92.9608 TC 21 -18.0000 93.0000 1 20 -17.9763 92.9608 TC 21 3 320
1966055S11099 1966 14 SI WA JUDITH:MARTHA 1966-03-02 06:00:00 TS -17.9138 92.9011 main 1823 1823 O_____P__OP_O_ jtwc_sh SH261966 -17.9000 93.0000 20 -1 -17.9309 92.7308 996 -17.9000 93.0000 TC 20 -17.9517 92.9757 1 22 -17.9000 93.0000 TC 20 3 307
1966055S11099 1966 14 SI WA JUDITH:MARTHA 1966-03-02 07:00:00 TS -17.8937 92.8529 996 bom main 1823 1823 P_____O__PP_P_ SH261966 -17.8828 92.9864 21 -1 -17.9000 92.6000 996 -17.8828 92.9864 TC 21 -17.9344 92.9390 1 23 -17.8828 92.9864 TC 21 3 281
1966055S11099 1966 14 SI WA JUDITH:MARTHA 1966-03-02 09:00:00 TS -17.8814 92.7227 main 1839 1839 P_____P__PP_P_ SH261966 -17.8774 92.8900 25 -1 -17.8939 92.3862 996 -17.8774 92.8900 TC 25 -17.9110 92.8203 1 26 -17.8774 92.8900 TC 25 4 273
1966055S11099 1966 14 SI WA JUDITH:MARTHA 1966-03-02 10:00:00 TS -17.8829 92.6420 997 bom main 1847 1847 P_____O__PP_P_ SH261966 -17.8836 92.8109 26 -1 -17.9000 92.3000 997 -17.8836 92.8109 TC 26 -17.9041 92.7396 1 27 -17.8836 92.8109 TC 26 5 268
1966055S11099 1966 14 SI WA JUDITH:MARTHA 1966-03-02 12:00:00 TS -17.8902 92.4600 main 1855 1863 O_____P__OP_O_ jtwc_sh SH261966 -17.9000 92.6000 30 -1 -17.9128 92.2019 997 -17.9000 92.6000 TC 30 -17.8974 92.5390 1 30 -17.9000 92.6000 TC 30 6 269
1966055S11099 1966 14 SI WA JUDITH:MARTHA 1966-03-02 15:00:00 TS -17.8890 92.1305 main 1887 1887 P_____P__PP_P_ SH261966 -17.9000 92.1950 32 -1 -17.9150 92.0790 997 -17.9000 92.1950 TC 32 -17.8985 92.1502 1 33 -17.9000 92.1950 TC 32 7 271
1966055S11099 1966 14 SI WA JUDITH:MARTHA 1966-03-02 16:00:00 TS -17.8859 91.9978 997 bom main 1896 1896 P_____O__PO_P_ SH261966 -17.9000 92.0351 33 -1 -17.9000 92.0000 997 -17.9000 92.0351 TC 33 -17.9000 92.0000 2 35 -17.9000 92.0351 TC 33 8 273
1966055S11099 1966 14 SI WA JUDITH:MARTHA 1966-03-02 18:00:00 TS -17.8677 91.7110 main 1920 1920 O_____P__OP_O_ jtwc_sh SH261966 -17.9000 91.7000 35 0 -17.8285 91.7338 997 -17.9000 91.7000 TC 35 -17.8778 91.7322 2 32 -17.9000 91.7000 TC 35 8 274
1966055S11099 1966 14 SI WA JUDITH:MARTHA 1966-03-02 19:00:00 TS -17.8565 91.5839 997 bom main 1929 1929 P_____O__PP_P_ SH261966 -17.8998 91.5548 33 -1 -17.8000 91.6000 997 -17.8998 91.5548 TC 33 -17.8673 91.5824 2 31 -17.8998 91.5548 TC 33 7 274
1966055S11099 1966 14 SI WA JUDITH:MARTHA 1966-03-02 21:00:00 TS -17.8450 91.3241 main 1947 1947 P_____P__PP_P_ SH261966 -17.8995 91.2525 30 -1 -17.8024 91.3946 997 -17.8995 91.2525 TC 30 -17.8506 91.2495 2 28 -17.8995 91.2525 TC 30 8 272
1966055S11099 1966 14 SI WA JUDITH:MARTHA 1966-03-02 22:00:00 TS -17.8407 91.1783 998 bom main 1955 1955 P_____O__PP_P_ SH261966 -17.8995 91.0862 28 -1 -17.8000 91.3000 998 -17.8995 91.0862 TC 28 -17.8455 91.0658 2 27 -17.8995 91.0862 TC 28 9 272
1966055S11099 1966 14 SI WA JUDITH:MARTHA 1966-03-03 00:00:00 TS -17.8266 90.8401 main 1988 1988 O_____P__OP_O_ jtwc_sh SH261966 -17.9000 90.7000 25 -1 -17.7147 91.1789 998 -17.9000 90.7000 TC 25 -17.8451 90.6620 2 24 -17.9000 90.7000 TC 25 11 272
1966055S11099 1966 14 SI WA JUDITH:MARTHA 1966-03-03 01:00:00 TS -17.8255 90.6155 998 bom main 2003 2003 P_____O__PP_P_ SH261966 -17.8920 90.4779 24 -1 -17.7000 91.0000 998 -17.8920 90.4779 TC 24 -17.8510 90.4414 2 23 -17.8920 90.4779 TC 24 16 268
1966055S11099 1966 14 SI WA JUDITH:MARTHA 1966-03-03 03:00:00 TS -17.8588 90.0242 main 2053 2053 P_____P__PP_P_ SH261966 -17.8772 89.9746 22 -1 -17.8173 90.1878 998 -17.8772 89.9746 TC 22 -17.8778 89.9607 2 21 -17.8772 89.9746 TC 22 18 266
1966055S11099 1966 14 SI MM JUDITH:MARTHA 1966-03-03 04:00:00 TS -17.8844 89.6958 998 bom main 2074 2074 P_____O__PO_P_ SH261966 -17.8760 89.6971 21 -1 -17.9000 89.7000 998 -17.8760 89.6971 TC 21 -17.9000 89.7000 1 20 -17.8760 89.6971 TC 21 19 265
1966055S11099 1966 14 SI MM JUDITH:MARTHA 1966-03-03 06:00:00 TS -17.9420 89.0426 main 2112 2112 O_____P__OP_O_ jtwc_sh SH261966 -17.9000 89.1000 20 -1 -18.0343 88.8267 998 -17.9000 89.1000 TC 20 -17.9610 89.1467 1 22 -17.9000 89.1000 TC 20 19 264
1966055S11099 1966 14 SI MM JUDITH:MARTHA 1966-03-03 07:00:00 TS -17.9780 88.7234 998 bom main 2138 2138 P_____O__PP_P_ SH261966 -17.9302 88.7896 21 -1 -18.1000 88.4000 998 -17.9302 88.7896 TC 21 -17.9994 88.8482 1 23 -17.9302 88.7896 TC 21 19 262
1966055S11099 1966 14 SI MM JUDITH:MARTHA 1966-03-03 09:00:00 TS -18.0741 88.0346 main 2188 2188 P_____P__PP_P_ SH261966 -18.0199 88.1301 25 -1 -18.2212 87.5674 -18.0199 88.1301 TC 25 -18.0897 88.2156 1 26 -18.0199 88.1301 TC 25 20 261
1966055S11099 1966 14 SI MM JUDITH:MARTHA 1966-03-03 12:00:00 TS -18.2478 86.9782 main 2258 2274 O_____P__OP_O_ jtwc_sh SH261966 -18.2000 87.1000 30 -1 -18.3869 86.3889 -18.2000 87.1000 TC 30 -18.2520 87.2023 1 30 -18.2000 87.1000 TC 30 20 260
1966055S11099 1966 14 SI MM JUDITH:MARTHA 1966-03-03 15:00:00 TS -18.4304 85.9555 main 2340 2347 P_____P__PP_P_ SH261966 -18.3919 86.1074 32 -1 -18.5405 85.3044 -18.3919 86.1074 TC 32 -18.4359 86.1512 1 33 -18.3919 86.1074 TC 32 20 259
1966055S11099 1966 14 SI MM JUDITH:MARTHA 1966-03-03 16:00:00 TS -18.4945 85.6178 main 2376 2376 P_____P__PO_P_ SH261966 -18.4607 85.7744 33 -1 -18.5906 84.9656 -18.4607 85.7744 TC 33 -18.5000 85.8000 2 35 -18.4607 85.7744 TC 33 20 259
1966055S11099 1966 14 SI MM JUDITH:MARTHA 1966-03-03 18:00:00 TS -18.6228 84.9371 main 2431 2431 O_____P__OP_O_ jtwc_sh SH261966 -18.6000 85.1000 35 0 -18.6907 84.3246 -18.6000 85.1000 TC 35 -18.6232 85.0608 2 33 -18.6000 85.1000 TC 35 20 259
1966055S11099 1966 14 SI MM JUDITH:MARTHA 1966-03-03 21:00:00 TS -18.8132 83.9005 main 2518 2525 P_____P__PP_P_ SH261966 -18.7999 84.0349 30 -1 -18.8457 83.4604 -18.7999 84.0349 TC 30 -18.8204 83.9372 2 30 -18.7999 84.0349 TC 30 20 259
1966055S11099 1966 14 SI MM JUDITH:MARTHA 1966-03-03 22:00:00 TS -18.8776 83.5633 1000 bom main 2548 2548 P_____O__PP_P_ SH261966 -18.8666 83.6816 28 -1 -18.9000 83.2000 1000 -18.8666 83.6816 TC 28 -18.8882 83.5717 2 30 -18.8666 83.6816 TC 28 19 258
1966055S11099 1966 14 SI MM JUDITH:MARTHA 1966-03-04 00:00:00 TS -19.0059 82.9222 main 2606 2521 O_____P__OP_O_ jtwc_sh SH261966 -19.0000 83.0000 25 -1 -19.0040 82.7373 -19.0000 83.0000 TC 25 -19.0254 82.8735 2 28 -19.0000 83.0000 TC 25 19 254
1966055S11099 1966 14 SI MM JUDITH:MARTHA 1966-03-04 03:00:00 TS -19.3248 81.9286 main 2521 2486 P_____P__PP_P_ SH261966 -19.2003 81.9801 25 -1 -19.1668 82.1598 -19.2003 81.9801 TC 25 -19.2317 81.9573 2 25 -19.2003 81.9801 TC 25 23 243
1966055S11099 1966 14 SI MM JUDITH:MARTHA 1966-03-04 04:00:00 TS -19.6912 81.4836 main 2475 2419 P_____P__PO_P_ SH261966 -19.2669 81.6811 25 -1 -19.2237 81.9914 -19.2669 81.6811 TC 25 -19.3000 81.7000 1 25 -19.2669 81.6811 TC 25 23 233
1966055S11099 1966 14 SI MM JUDITH:MARTHA 1966-03-04 06:00:00 TS -20.0179 80.9533 main 2419 2354 O_____P__OP_O_ jtwc_sh SH261966 -19.4000 81.2000 25 -1 -19.3431 81.6808 -19.4000 81.2000 TC 25 -19.4275 81.3292 1 25 -19.4000 81.2000 TC 25 14 238
1966055S11099 1966 14 SI MM JUDITH:MARTHA 1966-03-04 09:00:00 TS -20.3260 80.4010 main 2354 2301 P_____P__PP_P_ SH261966 -19.5990 80.8820 27 -1 -19.5389 81.2540 -19.5990 80.8820 TC 27 -19.6213 80.9385 1 27 -19.5990 80.8820 TC 27 11 242
1966055S11099 1966 14 SI MM JUDITH:MARTHA 1966-03-04 12:00:00 TS -20.5313 79.9024 main 2301 2248 O____OP__OP_O_ jtwc_sh SH261966 -19.8000 80.7000 30 -1 -20.0000 80.4000 2 9.90000 -19.7594 80.8331 -19.8000 80.7000 TC 30 -19.8209 80.6437 1 28 -19.8000 80.7000 TC 30 10 251
1966055S11099 1966 14 SI MM JUDITH:MARTHA 1966-03-04 15:00:00 TS -20.6558 79.3867 main 2248 2227 P____PP__PP_P_ SH261966 -19.9922 80.3172 30 -1 -20.3078 79.9529 2 -20.0094 80.3712 -19.9922 80.3172 TC 30 -20.0287 80.3293 1 29 -19.9922 80.3172 TC 30 10 256
1966055S11099 1966 14 SI MM JUDITH:MARTHA 1966-03-04 16:00:00 TS -20.6956 79.2149 1000 bom main 2227 2185 P____PO__PO_P_ SH261966 -20.0585 80.1610 30 -1 -20.4076 79.8028 2 -20.1000 80.2000 1000 -20.0585 80.1610 TC 30 -20.1000 80.2000 1 30 -20.0585 80.1610 TC 30 11 255
1966055S11099 1966 14 SI MM JUDITH:MARTHA 1966-03-04 18:00:00 TS -20.7979 78.8361 reunion main 2185 2132 O____OP__OP_O_ jtwc_sh SH261966 -20.2000 79.8000 30 -1 -20.6000 79.5000 99 9.90000 -20.3123 79.8151 1000 -20.2000 79.8000 TC 30 -20.2688 79.8094 1 29 -20.2000 79.8000 TC 30 11 253
1966055S11099 1966 14 SI MM JUDITH:MARTHA 1966-03-04 21:00:00 TS -20.9731 78.2505 main 2132 2111 P____PP__PP_P_ SH261966 -20.4504 79.1152 27 -1 -20.8647 79.0298 99 -20.6162 79.2094 1000 -20.4504 79.1152 TC 27 -20.5283 79.1533 1 27 -20.4504 79.1152 TC 27 12 252
1966055S11099 1966 14 SI MM JUDITH:MARTHA 1966-03-04 22:00:00 TS -21.0287 78.0534 main 2111 2070 P____PO__PP_P_ SH261966 -20.5361 78.8703 26 -1 -20.9464 78.8623 99 -20.7000 79.0000 1000 -20.5361 78.8703 TC 26 -20.6118 78.9245 1 27 -20.5361 78.8703 TC 26 12 254
1966055S11099 1966 14 SI MM JUDITH:MARTHA 1966-03-05 00:00:00 TS -21.1283 77.6576 reunion main 2070 2007 O____OP__OP_O_ jtwc_sh SH261966 -20.7000 78.4000 25 -1 -21.1000 78.5000 99 9.90000 -20.8261 78.5460 999 -20.7000 78.4000 TC 25 -20.7672 78.4649 1 26 -20.7000 78.4000 TC 25 11 256
1966055S11099 1966 14 SI MM JUDITH:MARTHA 1966-03-05 03:00:00 TS -21.2547 77.0753 main 2007 1987 P____PP__PP_P_ SH261966 -20.9447 77.8126 25 -1 -21.3151 77.8650 99 -20.9404 77.8455 999 -20.9447 77.8126 TC 25 -20.9544 77.8039 1 25 -20.9447 77.8126 TC 25 11 258
1966055S11099 1966 14 SI MM JUDITH:MARTHA 1966-03-05 04:00:00 TS -21.2863 76.8833 main 1987 1945 P____PP__PO_P_ SH261966 -21.0114 77.6347 25 -1 -21.3801 77.6417 99 -20.9630 77.6187 999 -21.0114 77.6347 TC 25 -21.0000 77.6000 1 25 -21.0114 77.6347 TC 25 10 263
1966055S11099 1966 14 SI MM JUDITH:MARTHA 1966-03-05 06:00:00 TS -21.3172 76.5259 reunion main 1945 1935 O____OP__OP_O_ jtwc_sh SH261966 -21.1000 77.3000 25 -1 -21.5000 77.2000 99 9.90000 -20.9916 77.1930 999 -21.1000 77.3000 TC 25 -21.0422 77.2715 1 26 -21.1000 77.3000 TC 25 10 267
1966055S11099 1966 14 SI MM JUDITH:MARTHA 1966-03-05 07:00:00 TS -21.3154 76.3567 main 1935 1893 P____PO__PP_P_ SH261966 -21.1091 77.1410 26 -1 -21.5634 76.9917 99 -21.0000 77.0000 999 -21.1091 77.1410 TC 26 -21.0507 77.1193 1 27 -21.1091 77.1410 TC 26 10 272
1966055S11099 1966 14 SI MM JUDITH:MARTHA 1966-03-05 09:00:00 TS -21.3021 76.0116 main 1893 1842 P____PP__PP_P_ SH261966 -21.0797 76.8421 30 -1 -21.6798 76.5851 99 -21.0179 76.7161 998 -21.0797 76.8421 TC 30 -21.0494 76.8306 1 29 -21.0797 76.8421 TC 30 10 274
1966055S11099 1966 14 SI MM JUDITH:MARTHA 1966-03-05 12:00:00 TS -21.2638 75.4887 reunion main 1842 1779 O____OP__OP_O_ jtwc_sh SH261966 -21.0000 76.4000 35 0 -21.8000 76.0000 2 9.90000 -21.0164 76.3594 998 -21.0000 76.4000 TC 35 -21.0230 76.4102 1 31 -21.0000 76.4000 TC 35 10 274
1966055S11099 1966 14 SI MM JUDITH:MARTHA 1966-03-05 15:00:00 TS -21.2395 74.9366 main 1779 1769 P____PP__PP_P_ SH261966 -20.9772 75.9299 35 0 -21.8222 75.4422 2 -21.0030 75.9640 998 -20.9772 75.9299 TC 35 -21.0003 75.9631 1 34 -20.9772 75.9299 TC 35 10 272
1966055S11099 1966 14 SI MM JUDITH:MARTHA 1966-03-05 16:00:00 TS -21.2340 74.7433 main 1759 1717 P____PO__PO_P_ SH261966 -20.9785 75.7623 35 0 -21.8161 75.2610 2 -21.0000 75.8000 998 -20.9785 75.7623 TC 35 -21.0000 75.8000 2 35 -20.9785 75.7623 TC 35 11 271
1966055S11099 1966 14 SI MM JUDITH:MARTHA 1966-03-05 18:00:00 TS -21.2325 74.3318 reunion main 1717 1707 O____OP__OP_O_ jtwc_sh SH261966 -21.0000 75.4000 35 0 -21.8000 74.9000 99 9.90000 -20.9914 75.4052 997 -21.0000 75.4000 TC 35 -21.0332 75.4131 2 33 -21.0000 75.4000 TC 35 12 269
1966055S11099 1966 14 SI MM JUDITH:MARTHA 1966-03-05 19:00:00 TS -21.2395 74.1137 main 1696 1655 P____PO__PP_P_ SH261966 -21.0246 75.1980 34 0 -21.7999 74.7141 99 -21.0000 75.2000 997 -21.0246 75.1980 TC 34 -21.0540 75.2094 2 32 -21.0246 75.1980 TC 34 12 267
1966055S11099 1966 14 SI MM JUDITH:MARTHA 1966-03-05 21:00:00 TS -21.2650 73.6641 main 1655 1634 P____PP__PP_P_ SH261966 -21.0926 74.7652 32 -1 -21.7999 74.3425 99 -21.0605 74.8026 996 -21.0926 74.7652 TC 32 -21.1018 74.7881 2 30 -21.0926 74.7652 TC 32 13 266
1966055S11099 1966 14 SI MM JUDITH:MARTHA 1966-03-05 22:00:00 TS -21.2801 73.4353 main 1624 1583 P____PO__PP_P_ SH261966 -21.1304 74.5419 31 -1 -21.7999 74.1588 99 -21.1000 74.6000 996 -21.1304 74.5419 TC 31 -21.1283 74.5729 2 30 -21.1304 74.5419 TC 31 13 266
1966055S11099 1966 14 SI MM JUDITH:MARTHA 1966-03-06 00:00:00 TS -21.3064 72.9789 reunion main 1583 1531 O____OP__OP_O_ jtwc_sh SH261966 -21.2000 74.1000 30 -1 -21.8000 73.8000 99 9.90000 -21.1665 74.1833 996 -21.2000 74.1000 TC 30 -21.1843 74.1401 2 28 -21.2000 74.1000 TC 30 10 267
1966055S11099 1966 14 SI MM JUDITH:MARTHA 1966-03-06 03:00:00 TS -21.3270 72.5333 main 1531 1531 P____PP__PP_P_ SH261966 -21.2499 73.4773 27 -1 -21.8145 73.3227 99 -21.2666 73.5271 996 -21.2499 73.4773 TC 27 -21.2715 73.5036 2 25 -21.2499 73.4773 TC 27 6 264
1966055S11099 1966 14 SI MM JUDITH:MARTHA 1966-03-06 04:00:00 TS -21.3424 72.5779 main 1541 1531 P____PO__PO_P_ SH261966 -21.2641 73.2786 26 -1 -21.8153 73.1597 99 -21.3000 73.3000 996 -21.2641 73.2786 TC 26 -21.3000 73.3000 1 25 -21.2641 73.2786 TC 26 1 217
1966055S11099 1966 14 SI MM JUDITH:MARTHA 1966-03-06 06:00:00 TS -21.3815 72.4833 reunion main 1531 1531 O____OP__OP_O_ jtwc_sh SH261966 -21.3000 72.9000 25 -1 -21.8000 72.8000 99 9.90000 -21.3681 72.8259 996 -21.3000 72.9000 TC 25 -21.3383 72.9449 1 25 -21.3000 72.9000 TC 25 2 128
1966055S11099 1966 14 SI MM JUDITH:MARTHA 1966-03-06 07:00:00 TS -21.4197 72.6793 main 1552 1511 P____PO__PP_P_ SH261966 -21.3274 72.7245 25 -1 -21.7729 72.5841 99 -21.4000 72.6000 997 -21.3274 72.7245 TC 25 -21.3571 72.7738 1 25 -21.3274 72.7245 TC 25 3 243
1966055S11099 1966 14 SI MM JUDITH:MARTHA 1966-03-06 09:00:00 TS -21.4567 72.3241 main 1511 1459 P____PP__PP_P_ SH261966 -21.3921 72.3925 25 -1 -21.7002 72.1146 99 -21.4494 72.2483 997 -21.3921 72.3925 TC 25 -21.3963 72.4382 1 25 -21.3921 72.3925 TC 25 10 263
1966055S11099 1966 14 SI MM JUDITH:MARTHA 1966-03-06 12:00:00 TS -21.5170 71.8104 reunion main 1459 1408 O____OP__OP_O_ jtwc_sh SH261966 -21.5000 71.9000 25 -1 -21.6000 71.4000 2 9.90000 -21.5083 71.8333 997 -21.5000 71.9000 TC 25 -21.4663 71.9323 1 25 -21.5000 71.9000 TC 25 10 262
1966055S11099 1966 14 SI MM JUDITH:MARTHA 1966-03-06 15:00:00 TS -21.5863 71.2890 main 1408 1388 P____PP__PP_P_ SH261966 -21.5921 71.3873 25 -1 -21.5771 70.7851 2 -21.5728 71.3877 997 -21.5921 71.3873 TC 25 -21.5609 71.3931 1 25 -21.5921 71.3873 TC 25 10 262
1966055S11099 1966 14 SI MM JUDITH:MARTHA 1966-03-06 16:00:00 TS -21.6141 71.1012 main 1388 1347 P____PO__PO_P_ SH261966 -21.6250 71.2035 25 -1 -21.5809 70.5892 2 -21.6000 71.2000 997 -21.6250 71.2035 TC 25 -21.6000 71.2000 1 25 -21.6250 71.2035 TC 25 11 261
1966055S11099 1966 14 SI MM JUDITH:MARTHA 1966-03-06 18:00:00 TS -21.6782 70.6850 reunion main 1347 1327 O____OP__OP_O_ jtwc_sh SH261966 -21.7000 70.8000 25 -1 -21.6000 70.2000 99 9.90000 -21.6657 70.7481 997 -21.7000 70.8000 TC 25 -21.6815 70.7472 1 23 -21.7000 70.8000 TC 25 12 261
1966055S11099 1966 14 SI MM JUDITH:MARTHA 1966-03-06 19:00:00 TS -21.7098 70.4520 main 1327 1276 P____PO__PP_P_ SH261966 -21.7392 70.5675 24 -1 -21.6083 69.9948 99 -21.7000 70.5000 997 -21.7392 70.5675 TC 24 -21.7271 70.5098 1 22 -21.7392 70.5675 TC 24 14 261
1966055S11099 1966 14 SI MM JUDITH:MARTHA 1966-03-06 21:00:00 TS -21.7803 69.9591 main 1276 1255 P____PP__PP_P_ SH261966 -21.8277 70.0648 22 -1 -21.6349 69.5850 99 -21.7588 69.9641 997 -21.8277 70.0648 TC 22 -21.8284 70.0231 1 20 -21.8277 70.0648 TC 22 14 261
1966055S11099 1966 14 SI MM JUDITH:MARTHA 1966-03-06 22:00:00 TS -21.8235 69.7099 main 1245 1195 P____PO__PP_P_ SH261966 -21.8790 69.8058 21 -1 -21.6533 69.3842 99 -21.8000 69.7000 998 -21.8790 69.8058 TC 21 -21.8842 69.7776 1 20 -21.8790 69.8058 TC 21 14 257
1966055S11099 1966 14 SI MM JUDITH:MARTHA 1966-03-07 00:00:00 TS -21.9324 69.2303 reunion main 1195 1176 O____OP__OP_O_ jtwc_sh SH261966 -22.0000 69.3000 20 -1 -21.7000 69.0000 99 9.90000 -21.9199 69.2200 998 -22.0000 69.3000 TC 20 -22.0069 69.2924 1 18 -22.0000 69.3000 TC 20 14 255
1966055S11099 1966 14 SI MM JUDITH:MARTHA 1966-03-07 01:00:00 TS -22.0000 69.0057 main 1176 1137 P____PO__PP_P_ SH261966 -22.0718 69.0615 19 -1 -21.7222 68.8218 99 -22.0000 69.0000 998 -22.0718 69.0615 TC 19 -22.0740 69.0565 1 17 -22.0718 69.0615 TC 19 13 250
1966055S11099 1966 14 SI MM JUDITH:MARTHA 1966-03-07 03:00:00 TS -22.1575 68.5806 main 1138 1118 P____PP__PP_P_ SH261966 -22.2349 68.6051 17 -1 -21.7772 68.4848 99 -22.1866 68.5945 998 -22.2349 68.6051 TC 17 -22.2204 68.6084 1 15 -22.2349 68.6051 TC 17 13 247
1966055S11099 1966 14 SI MM JUDITH:MARTHA 1966-03-07 04:00:00 TS -22.2457 68.3802 main 1118 1081 P____PO__PO_P_ SH261966 -22.3224 68.3909 16 -1 -21.8118 68.3223 99 -22.3000 68.4000 998 -22.3224 68.3909 TC 16 -22.3000 68.4000 1 15 -22.3224 68.3909 TC 16 12 243
1966055S11099 1966 14 SI MM JUDITH:MARTHA 1966-03-07 06:00:00 TS -22.4339 68.0019 reunion main 1081 1073 O____OP__OP_O_ jtwc_sh SH261966 -22.5000 68.0000 15 -1 -21.9000 68.0000 99 9.90000 -22.5653 67.9924 998 -22.5000 68.0000 TC 15 -22.4722 68.0205 1 15 -22.5000 68.0000 TC 15 12 242
1966055S11099 1966 14 SI MM JUDITH:MARTHA 1966-03-07 07:00:00 TS -22.5147 67.8264 main 1063 1038 P____PO__PP_P_ SH261966 -22.5175 67.8312 15 -1 -21.9290 67.8278 99 -22.7000 67.8000 999 -22.5868 67.8262 TC 15 -22.5641 67.8477 1 16 -22.5868 67.8262 TC 15 10 242
1966055S11099 1966 14 SI MM JUDITH:MARTHA 1966-03-07 09:00:00 TS -22.6726 67.5101 main 1038 1003 P____PP__PP_P_ SH261966 -22.5621 67.5323 15 -1 -22.0100 67.4844 99 -22.9002 67.4978 999 -22.7551 67.5151 TC 15 -22.7579 67.5304 1 17 -22.7551 67.5151 TC 15 10 239
1966055S11099 1966 14 SI MM JUDITH:MARTHA 1966-03-07 12:00:00 TS -22.9260 67.0879 reunion main 1003 946 O____OP__OP_O_ jtwc_sh SH261966 -23.0000 67.1000 15 -1 -22.3000 67.0000 2 9.90000 -23.1369 67.1417 999 -23.0000 67.1000 TC 15 -23.0677 67.1084 1 18 -23.0000 67.1000 TC 15 14 232
1966055S11099 1966 14 SI MM JUDITH:MARTHA 1966-03-07 15:00:00 TS -23.5433 66.3169 main 946 939 P____PP___P___ SH261966 -24.4173 66.3194 -1 -22.9026 66.4966 2 -23.3924 66.7605 999 TC -23.3911 66.7246 1 19 TC 21 221
1966055S11099 1966 14 SI MM JUDITH:MARTHA 1966-03-07 16:00:00 TS -23.9863 66.0759 main 948 943 P____PO___O___ SH261966 -24.9743 66.1171 -1 -23.1554 66.3625 2 -23.5000 66.6000 1000 TC -23.5000 66.6000 1 20 TC 24 189
1966055S11099 1966 14 SI MM JUDITH:MARTHA 1966-03-07 18:00:00 TS -24.7168 66.1153 reunion main 981 986 O____OP_______ jtwc_sh SH281966 -26.0000 66.0000 -1 -23.7000 66.2000 99 9.90000 -23.7632 66.2053 1000 1 23 173
1966055S11099 1966 14 SI MM JUDITH:MARTHA 1966-03-07 19:00:00 TS -25.1294 66.2263 main 1011 1011 P____PO_______ SH281966 -26.3547 66.1760 -1 -23.9634 66.1846 99 -23.9000 66.0000 1001 1 20 158
1966055S11099 1966 14 SI MM JUDITH:MARTHA 1966-03-07 21:00:00 TS -25.6606 66.5304 main 1070 1079 P____PP_______ SH281966 -26.9285 66.8613 -1 -24.5197 66.2720 99 -24.1666 65.5999 1001 1 21 150
1966055S11099 1966 14 SI MM JUDITH:MARTHA 1966-03-07 22:00:00 TS -26.0359 66.8088 main 1113 1113 P____PO_______ SH281966 -27.1674 67.3145 -1 -24.8089 66.3617 99 -24.3000 65.4000 1002 1 26 141
1966055S11099 1966 14 SI MM JUDITH:MARTHA 1966-03-08 00:00:00 TS -26.6824 67.4490 reunion main 1205 1214 O____OP_______ jtwc_sh SH281966 -27.6000 68.3000 -1 -25.4000 66.6000 99 9.90000 -24.5668 65.0002 1002 1 28 135
1966055S11099 1966 14 SI MM JUDITH:MARTHA 1966-03-08 01:00:00 TS -27.0087 67.8945 main 1265 1265 P____PO_______ SH281966 -27.8132 68.7807 -1 -25.6733 66.7115 99 -24.7000 64.8000 1003 1 26 128
1966055S11099 1966 14 SI MM JUDITH:MARTHA 1966-03-08 03:00:00 TS -27.4653 68.5759 main 1354 1354 P____P________ SH281966 -28.2458 69.6937 -1 -26.2324 66.9841 99 1 19 131
1966055S11099 1966 14 SI MM JUDITH:MARTHA 1966-03-08 06:00:00 TS -28.0500 69.2500 reunion main 1442 1372 O____O________ jtwc_sh SH281966 -28.9000 71.0000 -1 -27.2000 67.5000 99 9.90000 10 203
1966055S11099 1966 14 SI MM JUDITH:MARTHA 1966-03-08 09:00:00 NR -28.4232 68.1180 main 1372 1378 _____P________ SH281966 -1 -28.4232 68.1180 99 18 193
1966055S11099 1966 14 SI MM JUDITH:MARTHA 1966-03-08 12:00:00 TS -29.8000 68.8000 reunion main 1523 _____O________ -1 -29.8000 68.8000 6 9.90000 30 157

About IBTrACS Database

This database is a web-friendly format of International Best Track Archive for Climate Stewardship (IBTrACS), a global best track data archive curated by NOAA dating back to 1842.

Updated: 2021-12-01